createdAt,value
2023-05-05T00:01:35.576Z,59.67
2023-05-05T00:04:02.870Z,59.66
2023-05-05T00:06:30.249Z,57.98
2023-05-05T00:08:57.251Z,57.44
2023-05-05T00:11:26.134Z,57.10
2023-05-05T00:13:53.064Z,57.13
2023-05-05T00:16:20.419Z,57.87
2023-05-05T00:18:48.114Z,58.45
2023-05-05T00:21:15.750Z,59.29
2023-05-05T00:23:42.761Z,59.13
2023-05-05T00:26:09.713Z,59.47
2023-05-05T00:28:38.365Z,59.37
2023-05-05T00:31:05.744Z,57.95
2023-05-05T00:33:33.294Z,57.24
2023-05-05T00:36:00.445Z,57.48
2023-05-05T00:38:27.461Z,57.62
2023-05-05T00:40:54.474Z,58.12
2023-05-05T00:43:21.507Z,58.89
2023-05-05T00:45:48.515Z,59.43
2023-05-05T00:48:17.123Z,59.91
2023-05-05T00:50:45.230Z,60.16
2023-05-05T00:53:12.288Z,60.75
2023-05-05T00:55:39.247Z,59.11
2023-05-05T00:58:06.452Z,58.59
2023-05-05T01:00:34.310Z,58.61
2023-05-05T01:03:01.666Z,59.03
2023-05-05T01:05:41.905Z,59.85
2023-05-05T01:08:27.765Z,60.72
2023-05-05T01:10:59.009Z,61.32
2023-05-05T01:13:39.525Z,60.89
2023-05-05T01:16:14.300Z,59.14
2023-05-05T01:18:46.336Z,58.06
2023-05-05T01:21:15.485Z,57.82
2023-05-05T01:24:07.974Z,56.35
2023-05-05T01:26:47.261Z,58.18
2023-05-05T01:29:20.460Z,58.49
2023-05-05T01:31:52.025Z,59.03
2023-05-05T01:34:31.404Z,59.93
2023-05-05T01:37:07.647Z,60.11
2023-05-05T01:39:35.080Z,58.19
2023-05-05T01:42:05.404Z,56.64
2023-05-05T01:44:33.930Z,56.44
2023-05-05T01:47:01.067Z,56.85
2023-05-05T01:49:28.215Z,56.53
2023-05-05T01:51:56.055Z,56.84
2023-05-05T01:54:24.425Z,57.13
2023-05-05T01:56:51.578Z,57.84
2023-05-05T01:59:18.626Z,58.70
2023-05-05T02:01:47.313Z,60.08
2023-05-05T02:04:14.576Z,60.15
2023-05-05T02:06:42.044Z,57.93
2023-05-05T02:09:12.873Z,57.83
2023-05-05T02:11:40.088Z,58.43
2023-05-05T02:14:07.147Z,58.55
2023-05-05T02:16:34.297Z,59.29
2023-05-05T02:19:02.588Z,59.69
2023-05-05T02:21:29.796Z,60.05
2023-05-05T02:23:56.819Z,60.59
2023-05-05T02:26:23.794Z,60.64
2023-05-05T02:29:02.444Z,59.45
2023-05-05T02:31:30.248Z,58.89
2023-05-05T02:33:58.304Z,58.82
2023-05-05T02:36:27.937Z,57.89
2023-05-05T02:39:01.292Z,58.49
2023-05-05T02:41:29.793Z,58.88
2023-05-05T02:43:57.427Z,59.77
2023-05-05T02:46:25.515Z,60.77
2023-05-05T02:48:52.617Z,60.55
2023-05-05T02:51:19.556Z,58.83
2023-05-05T02:53:46.631Z,57.92
2023-05-05T02:56:17.300Z,58.18
2023-05-05T02:58:53.337Z,58.51
2023-05-05T03:01:28.124Z,58.76
2023-05-05T03:04:07.547Z,58.79
2023-05-05T03:06:40.814Z,59.54
2023-05-05T03:09:16.135Z,60.35
2023-05-05T03:12:05.603Z,60.32
2023-05-05T03:14:42.691Z,58.56
2023-05-05T03:17:11.941Z,57.29
2023-05-05T03:19:43.553Z,57.54
2023-05-05T03:22:10.660Z,58.07
2023-05-05T03:24:40.046Z,58.30
2023-05-05T03:27:08.946Z,58.14
2023-05-05T03:29:38.001Z,59.37
2023-05-05T03:32:08.631Z,60.18
2023-05-05T03:34:37.528Z,60.94
2023-05-05T03:37:05.143Z,60.95
2023-05-05T03:39:32.907Z,59.59
2023-05-05T03:42:00.798Z,59.06
2023-05-05T03:44:30.709Z,59.20
2023-05-05T03:46:57.892Z,59.25
2023-05-05T03:49:25.623Z,59.27
2023-05-05T03:51:52.557Z,59.61
2023-05-05T03:54:19.739Z,60.07
2023-05-05T03:56:46.948Z,60.54
2023-05-05T03:59:13.950Z,60.28
2023-05-05T04:01:41.556Z,58.84
2023-05-05T04:04:09.623Z,58.09
2023-05-05T04:06:37.065Z,57.91
2023-05-05T04:09:05.801Z,58.52
2023-05-05T04:11:32.850Z,59.00
2023-05-05T04:14:00.740Z,59.52
2023-05-05T04:16:28.371Z,59.52
2023-05-05T04:18:56.125Z,60.18
2023-05-05T04:21:23.226Z,59.76
2023-05-05T04:23:50.534Z,58.39
2023-05-05T04:26:17.576Z,57.43
2023-05-05T04:28:46.070Z,57.08
2023-05-05T04:31:14.061Z,57.44
2023-05-05T04:33:41.948Z,57.11
2023-05-05T04:36:09.089Z,57.81
2023-05-05T04:38:37.827Z,58.61
2023-05-05T04:41:06.526Z,58.64
2023-05-05T04:43:34.397Z,59.28
2023-05-05T04:46:01.855Z,58.78
2023-05-05T04:48:30.994Z,57.14
2023-05-05T04:50:58.053Z,56.21
2023-05-05T04:53:25.314Z,56.06
2023-05-05T04:55:52.357Z,56.37
2023-05-05T04:58:19.356Z,56.13
2023-05-05T05:00:46.603Z,56.52
2023-05-05T05:03:13.878Z,56.26
2023-05-05T05:05:40.867Z,56.18
2023-05-05T05:08:08.412Z,56.05
2023-05-05T05:10:36.000Z,55.94
2023-05-05T05:13:03.739Z,54.74
2023-05-05T05:15:31.261Z,54.98
2023-05-05T05:17:58.240Z,54.55
2023-05-05T05:20:25.250Z,54.74
2023-05-05T05:22:52.294Z,54.39
2023-05-05T05:25:19.684Z,54.52
2023-05-05T05:27:52.302Z,54.67
2023-05-05T05:30:30.368Z,54.68
2023-05-05T05:32:57.931Z,54.86
2023-05-05T05:35:25.796Z,54.73
2023-05-05T05:37:53.127Z,54.48
2023-05-05T05:40:20.617Z,54.06
2023-05-05T05:42:47.580Z,53.96
2023-05-05T05:45:14.772Z,53.77
2023-05-05T05:47:42.362Z,54.14
2023-05-05T05:50:10.236Z,54.40
2023-05-05T05:52:37.954Z,54.08
2023-05-05T05:55:06.780Z,54.03
2023-05-05T05:57:34.558Z,53.27
2023-05-05T06:00:02.453Z,53.15
2023-05-05T06:02:39.679Z,52.71
2023-05-05T06:05:09.337Z,52.13
2023-05-05T06:07:37.816Z,51.14
2023-05-05T06:10:22.661Z,49.06
2023-05-05T06:12:54.017Z,48.23
2023-05-05T06:15:21.023Z,46.76
2023-05-05T06:17:48.156Z,45.63
2023-05-05T06:20:15.362Z,40.73
2023-05-05T06:22:42.654Z,40.26
2023-05-05T06:25:10.093Z,41.77
2023-05-05T06:27:37.951Z,41.90
2023-05-05T06:30:06.905Z,37.32
2023-05-05T06:32:34.667Z,39.94
2023-05-05T06:35:01.624Z,38.75
2023-05-05T06:37:28.510Z,37.51
2023-05-05T06:39:56.859Z,38.31
2023-05-05T06:42:23.792Z,37.53
2023-05-05T06:44:51.938Z,33.45
2023-05-05T06:47:18.912Z,35.11
2023-05-05T06:49:45.864Z,35.36
2023-05-05T06:52:12.769Z,34.17
2023-05-05T06:54:39.890Z,34.19
2023-05-05T06:57:06.825Z,34.73
2023-05-05T06:59:33.957Z,33.49
2023-05-05T07:02:01.027Z,33.22
2023-05-05T07:04:28.232Z,32.44
2023-05-05T07:06:55.412Z,32.68
2023-05-05T07:09:22.738Z,32.59
2023-05-05T07:11:49.773Z,32.86
2023-05-05T07:14:16.978Z,31.59
2023-05-05T07:16:44.162Z,31.74
2023-05-05T07:19:11.213Z,30.71
2023-05-05T07:21:39.743Z,30.59
2023-05-05T07:24:07.158Z,30.84
2023-05-05T07:26:34.460Z,30.95
2023-05-05T07:29:02.671Z,30.23
2023-05-05T07:31:29.815Z,30.29
2023-05-05T07:33:56.801Z,29.07
2023-05-05T07:36:23.729Z,29.16
2023-05-05T07:38:50.666Z,29.62
2023-05-05T07:41:18.549Z,28.34
2023-05-05T07:43:46.152Z,29.41
2023-05-05T07:46:13.958Z,29.58
2023-05-05T07:48:41.828Z,28.41
2023-05-05T07:51:09.363Z,29.08
2023-05-05T07:53:37.010Z,28.72
2023-05-05T07:56:06.413Z,28.31
2023-05-05T07:58:33.583Z,28.38
2023-05-05T08:01:01.463Z,27.97
2023-05-05T08:03:28.711Z,26.87
2023-05-05T08:05:56.568Z,27.01
2023-05-05T08:08:27.084Z,28.19
2023-05-05T08:10:54.565Z,27.91
2023-05-05T08:13:21.682Z,28.94
2023-05-05T08:15:48.609Z,28.45
2023-05-05T08:18:16.039Z,27.54
2023-05-05T08:20:43.069Z,26.74
2023-05-05T08:23:09.980Z,26.86
2023-05-05T08:25:36.972Z,28.10
2023-05-05T08:28:03.993Z,27.31
2023-05-05T08:30:31.115Z,27.25
2023-05-05T08:32:59.168Z,28.48
2023-05-05T08:35:26.179Z,26.67
2023-05-05T08:37:53.130Z,27.33
2023-05-05T08:40:21.137Z,25.10
2023-05-05T08:42:48.682Z,25.61
2023-05-05T08:45:16.143Z,26.41
2023-05-05T08:47:43.946Z,26.22
2023-05-05T08:50:11.482Z,25.83
2023-05-05T08:52:40.708Z,26.38
2023-05-05T08:55:10.647Z,25.94
2023-05-05T08:57:57.365Z,25.76
2023-05-05T09:00:24.597Z,25.90
2023-05-05T09:02:51.897Z,26.30
2023-05-05T09:05:19.009Z,26.57
2023-05-05T09:07:47.507Z,25.46
2023-05-05T09:10:14.557Z,25.49
2023-05-05T09:12:42.838Z,25.60
2023-05-05T09:15:11.690Z,24.55
2023-05-05T09:17:39.256Z,26.40
2023-05-05T09:20:07.468Z,26.11
2023-05-05T09:22:38.410Z,25.56
2023-05-05T09:25:05.610Z,25.86
2023-05-05T09:27:36.773Z,25.37
2023-05-05T09:30:05.732Z,25.02
2023-05-05T09:32:49.009Z,25.56
2023-05-05T09:35:16.689Z,26.14
2023-05-05T09:37:43.703Z,25.07
2023-05-05T09:40:15.757Z,24.95
2023-05-05T09:42:44.766Z,25.70
2023-05-05T09:45:17.803Z,25.05
2023-05-05T09:47:49.091Z,25.27
2023-05-05T09:50:18.983Z,24.65
2023-05-05T09:53:02.748Z,24.88
2023-05-05T09:55:31.378Z,24.59
2023-05-05T09:58:19.552Z,25.66
2023-05-05T10:00:46.893Z,25.40
2023-05-05T10:03:14.019Z,24.95
2023-05-05T10:05:57.833Z,23.81
2023-05-05T10:08:26.704Z,23.46
2023-05-05T10:10:58.505Z,22.79
2023-05-05T10:13:25.523Z,25.78
2023-05-05T10:15:56.602Z,25.45
2023-05-05T10:18:25.794Z,25.70
2023-05-05T10:21:00.732Z,25.08
2023-05-05T10:23:33.219Z,25.04
2023-05-05T10:26:06.226Z,23.96
2023-05-05T10:28:35.710Z,24.51
2023-05-05T10:31:07.647Z,24.90
2023-05-05T10:33:53.368Z,23.18
2023-05-05T10:36:20.420Z,24.28
2023-05-05T10:38:47.296Z,23.42
2023-05-05T10:41:17.305Z,24.12
2023-05-05T10:43:44.397Z,24.93
2023-05-05T10:46:11.483Z,24.49
2023-05-05T10:48:42.817Z,25.29
2023-05-05T10:51:38.479Z,23.84
2023-05-05T10:54:39.660Z,22.97
2023-05-05T10:57:08.203Z,23.17
2023-05-05T10:59:38.648Z,23.40
2023-05-05T11:02:26.600Z,24.54
2023-05-05T11:05:23.465Z,25.30
2023-05-05T11:07:51.308Z,26.02
2023-05-05T11:10:23.362Z,27.10
2023-05-05T11:13:02.098Z,28.50
2023-05-05T11:15:29.994Z,29.41
2023-05-05T11:17:58.359Z,29.34
2023-05-05T11:20:39.798Z,27.13
2023-05-05T11:23:07.038Z,25.77
2023-05-05T11:25:38.173Z,26.40
2023-05-05T11:28:05.911Z,26.00
2023-05-05T11:30:33.151Z,24.88
2023-05-05T11:33:23.198Z,25.33
2023-05-05T11:35:59.360Z,24.71
2023-05-05T11:38:29.964Z,25.72
2023-05-05T11:41:02.242Z,24.56
2023-05-05T11:43:29.613Z,25.73
2023-05-05T11:46:12.902Z,27.28
2023-05-05T11:48:50.196Z,26.37
2023-05-05T11:51:18.078Z,25.92
2023-05-05T11:53:46.570Z,25.99
2023-05-05T11:56:19.269Z,25.29
2023-05-05T11:58:47.167Z,24.87
2023-05-05T12:01:14.096Z,24.39
2023-05-05T12:03:41.380Z,25.03
2023-05-05T12:06:09.551Z,24.93
2023-05-05T12:08:40.573Z,25.52
2023-05-05T12:11:08.665Z,25.84
2023-05-05T12:13:36.208Z,26.42
2023-05-05T12:16:13.855Z,27.29
2023-05-05T12:18:42.086Z,26.39
2023-05-05T12:21:18.776Z,25.51
2023-05-05T12:23:46.121Z,24.66
2023-05-05T12:26:33.350Z,24.19
2023-05-05T12:29:00.888Z,25.09
2023-05-05T12:31:41.544Z,24.49
2023-05-05T12:34:09.450Z,23.29
2023-05-05T12:36:36.801Z,24.52
2023-05-05T12:39:07.238Z,25.76
2023-05-05T12:41:34.787Z,25.11
2023-05-05T12:44:03.107Z,25.70
2023-05-05T12:46:31.301Z,24.67
2023-05-05T12:49:06.097Z,23.60
2023-05-05T12:51:34.292Z,23.68
2023-05-05T12:54:09.998Z,22.83
2023-05-05T12:56:41.516Z,24.39
2023-05-05T12:59:12.574Z,24.82
2023-05-05T13:01:49.196Z,24.25
2023-05-05T13:04:16.586Z,22.51
2023-05-05T13:06:45.163Z,23.48
2023-05-05T13:09:24.728Z,23.01
2023-05-05T13:11:53.458Z,23.98
2023-05-05T13:14:20.614Z,24.18
2023-05-05T13:16:47.501Z,25.49
2023-05-05T13:19:14.491Z,25.47
2023-05-05T13:21:41.909Z,25.26
2023-05-05T13:24:25.310Z,25.22
2023-05-05T13:26:56.655Z,26.33
2023-05-05T13:29:27.265Z,26.42
2023-05-05T13:31:57.129Z,25.62
2023-05-05T13:34:24.116Z,26.75
2023-05-05T13:36:51.012Z,27.23
2023-05-05T13:39:18.154Z,26.61
2023-05-05T13:41:45.543Z,27.35
2023-05-05T13:44:13.983Z,28.75
2023-05-05T13:46:42.626Z,27.56
2023-05-05T13:49:09.626Z,27.24
2023-05-05T13:51:38.376Z,27.83
2023-05-05T13:54:06.640Z,27.39
2023-05-05T13:56:34.329Z,26.75
2023-05-05T13:59:01.761Z,27.45
2023-05-05T14:01:29.686Z,28.42
2023-05-05T14:03:57.624Z,28.21
2023-05-05T14:06:26.038Z,28.06
2023-05-05T14:08:53.471Z,28.24
2023-05-05T14:11:20.869Z,29.35
2023-05-05T14:13:48.221Z,29.58
2023-05-05T14:16:15.403Z,29.66
2023-05-05T14:18:42.710Z,29.75
2023-05-05T14:21:10.071Z,30.62
2023-05-05T14:23:37.248Z,31.17
2023-05-05T14:26:06.923Z,31.39
2023-05-05T14:28:34.351Z,31.56
2023-05-05T14:31:01.923Z,32.83
2023-05-05T14:33:28.811Z,32.10
2023-05-05T14:35:55.912Z,31.34
2023-05-05T14:38:23.086Z,31.76
2023-05-05T14:40:50.122Z,31.37
2023-05-05T14:43:17.087Z,31.57
2023-05-05T14:45:44.456Z,30.94
2023-05-05T14:48:12.186Z,31.41
2023-05-05T14:50:40.766Z,30.82
2023-05-05T14:53:08.120Z,29.74
2023-05-05T14:55:35.440Z,29.68
2023-05-05T14:58:02.310Z,29.18
2023-05-05T15:00:29.509Z,29.30
2023-05-05T15:02:56.801Z,29.33
2023-05-05T15:05:23.822Z,29.00
2023-05-05T15:07:51.022Z,29.05
2023-05-05T15:10:19.717Z,29.14
2023-05-05T15:12:48.938Z,29.16
2023-05-05T15:15:16.199Z,29.39
2023-05-05T15:17:43.470Z,28.38
2023-05-05T15:20:11.270Z,28.94
2023-05-05T15:22:38.684Z,27.97
2023-05-05T15:25:09.635Z,29.16
2023-05-05T15:27:38.127Z,29.56
2023-05-05T15:30:06.140Z,29.62
2023-05-05T15:32:34.163Z,27.84
2023-05-05T15:35:01.199Z,29.18
2023-05-05T15:37:28.998Z,29.03
2023-05-05T15:39:56.999Z,28.46
2023-05-05T15:42:24.512Z,27.32
2023-05-05T15:44:51.640Z,28.52
2023-05-05T15:47:18.825Z,29.18
2023-05-05T15:49:45.894Z,29.38
2023-05-05T15:52:14.035Z,29.40
2023-05-05T15:56:58.348Z,28.26
2023-05-05T15:59:26.150Z,29.95
2023-05-05T16:01:53.202Z,28.16
2023-05-05T16:04:20.363Z,29.30
2023-05-05T16:06:47.468Z,28.87
2023-05-05T16:09:14.374Z,29.78
2023-05-05T16:11:41.529Z,30.04
2023-05-05T16:14:08.495Z,30.51
2023-05-05T16:16:35.502Z,29.36
2023-05-05T16:19:02.521Z,30.25
2023-05-05T16:21:29.717Z,29.71
2023-05-05T16:23:56.970Z,29.63
2023-05-05T16:26:23.961Z,30.22
2023-05-05T16:28:51.447Z,30.68
2023-05-05T16:31:18.361Z,30.68
2023-05-05T16:33:45.846Z,30.60
2023-05-05T16:36:13.269Z,29.61
2023-05-05T16:38:40.454Z,29.55
2023-05-05T16:41:07.835Z,30.45
2023-05-05T16:43:37.305Z,31.02
2023-05-05T16:46:04.410Z,30.98
2023-05-05T16:48:31.656Z,31.21
2023-05-05T16:50:58.884Z,31.39
2023-05-05T16:53:26.097Z,30.83
2023-05-05T16:55:53.613Z,31.25
2023-05-05T16:58:21.291Z,31.21
2023-05-05T17:00:49.312Z,31.61
2023-05-05T17:03:17.147Z,31.80
2023-05-05T17:05:44.664Z,32.15
2023-05-05T17:08:14.231Z,32.40
2023-05-05T17:10:42.030Z,32.13
2023-05-05T17:13:09.848Z,32.06
2023-05-05T17:15:37.615Z,32.48
2023-05-05T17:18:05.916Z,33.34
2023-05-05T17:20:32.950Z,33.53
2023-05-05T17:23:00.148Z,33.85
2023-05-05T17:25:27.109Z,33.89
2023-05-05T17:27:57.423Z,33.95
2023-05-05T17:30:24.439Z,34.35
2023-05-05T17:32:51.589Z,34.44
2023-05-05T17:35:18.596Z,34.92
2023-05-05T17:37:45.682Z,35.13
2023-05-05T17:40:12.794Z,35.24
2023-05-05T17:42:40.633Z,35.58
2023-05-05T17:45:08.640Z,35.86
2023-05-05T17:47:37.545Z,36.38
2023-05-05T17:50:05.318Z,36.80
2023-05-05T17:52:32.576Z,36.57
2023-05-05T17:54:59.574Z,37.41
2023-05-05T17:57:26.762Z,37.87
2023-05-05T17:59:53.888Z,38.09
2023-05-05T18:02:21.088Z,38.01
2023-05-05T18:04:48.523Z,38.06
2023-05-05T18:07:15.432Z,38.67
2023-05-05T18:09:42.729Z,39.50
2023-05-05T18:12:09.925Z,39.35
2023-05-05T18:14:36.910Z,39.44
2023-05-05T18:17:05.096Z,39.31
2023-05-05T18:19:32.589Z,39.17
2023-05-05T18:21:59.637Z,39.81
2023-05-05T18:24:27.640Z,39.65
2023-05-05T18:26:54.731Z,39.23
2023-05-05T18:29:22.083Z,39.81
2023-05-05T18:31:52.103Z,39.30
2023-05-05T18:34:19.460Z,39.67
2023-05-05T18:36:47.113Z,40.04
2023-05-05T18:39:14.632Z,40.94
2023-05-05T18:41:41.607Z,41.18
2023-05-05T18:44:08.900Z,40.88
2023-05-05T18:46:37.700Z,41.45
2023-05-05T18:49:04.848Z,41.55
2023-05-05T18:51:32.371Z,42.70
2023-05-05T18:54:00.822Z,42.85
2023-05-05T18:56:28.037Z,43.05
2023-05-05T18:58:56.290Z,44.07
2023-05-05T19:01:26.801Z,44.19
2023-05-05T19:03:54.212Z,45.26
2023-05-05T19:06:21.555Z,45.60
2023-05-05T19:08:48.759Z,45.73
2023-05-05T19:11:16.096Z,46.50
2023-05-05T19:13:44.065Z,46.95
2023-05-05T19:16:11.361Z,47.94
2023-05-05T19:18:40.536Z,47.63
2023-05-05T19:21:07.579Z,47.67
2023-05-05T19:23:36.156Z,48.19
2023-05-05T19:26:06.031Z,48.59
2023-05-05T19:28:33.346Z,48.98
2023-05-05T19:31:00.605Z,49.62
2023-05-05T19:33:28.738Z,49.76
2023-05-05T19:35:55.737Z,49.77
2023-05-05T19:38:23.178Z,50.29
2023-05-05T19:40:50.508Z,50.40
2023-05-05T19:43:17.546Z,50.56
2023-05-05T19:45:44.471Z,50.71
2023-05-05T19:48:11.733Z,50.97
2023-05-05T19:50:38.672Z,51.65
2023-05-05T19:53:06.006Z,51.79
2023-05-05T19:55:33.305Z,52.72
2023-05-05T19:58:00.394Z,53.13
2023-05-05T20:00:27.395Z,53.77
2023-05-05T20:02:54.542Z,51.75
2023-05-05T20:05:21.613Z,51.86
2023-05-05T20:07:50.227Z,51.90
2023-05-05T20:10:17.935Z,51.68
2023-05-05T20:12:48.839Z,51.15
2023-05-05T20:15:19.705Z,50.77
2023-05-05T20:17:47.209Z,51.58
2023-05-05T20:20:23.979Z,51.58
2023-05-05T20:22:51.221Z,51.46
2023-05-05T20:25:18.258Z,50.67
2023-05-05T20:27:45.987Z,49.08
2023-05-05T20:30:13.508Z,50.59
2023-05-05T20:32:40.967Z,51.14
2023-05-05T20:35:09.225Z,51.24
2023-05-05T20:37:37.032Z,51.62
2023-05-05T20:40:04.219Z,49.59
2023-05-05T20:42:31.880Z,51.24
2023-05-05T20:45:01.028Z,51.44
2023-05-05T20:47:28.696Z,50.43
2023-05-05T20:49:56.253Z,50.16
2023-05-05T20:52:23.413Z,50.73
2023-05-05T20:54:50.522Z,50.45
2023-05-05T20:57:17.560Z,50.24
2023-05-05T20:59:44.609Z,49.73
2023-05-05T21:02:11.666Z,51.52
2023-05-05T21:04:38.662Z,51.22
2023-05-05T21:07:05.794Z,50.80
2023-05-05T21:09:35.399Z,50.07
2023-05-05T21:12:02.592Z,51.17
2023-05-05T21:14:30.293Z,51.95
2023-05-05T21:16:57.325Z,52.20
2023-05-05T21:19:24.395Z,50.75
2023-05-05T21:21:51.412Z,51.58
2023-05-05T21:24:18.562Z,50.82
2023-05-05T21:26:45.672Z,51.25
2023-05-05T21:29:12.708Z,51.38
2023-05-05T21:31:39.839Z,51.81
2023-05-05T21:34:07.029Z,51.73
2023-05-05T21:36:34.508Z,52.10
2023-05-05T21:39:01.815Z,50.77
2023-05-05T21:41:28.963Z,51.83
2023-05-05T21:43:56.273Z,51.86
2023-05-05T21:46:23.462Z,52.26
2023-05-05T21:48:50.737Z,52.41
2023-05-05T21:51:17.920Z,52.55
2023-05-05T21:53:45.075Z,53.49
2023-05-05T21:56:12.224Z,52.03
2023-05-05T21:58:41.281Z,51.69
2023-05-05T22:01:08.500Z,52.35
2023-05-05T22:03:35.976Z,52.07
2023-05-05T22:06:02.972Z,52.14
2023-05-05T22:08:30.729Z,52.40
2023-05-05T22:10:57.878Z,53.41
2023-05-05T22:13:25.745Z,52.83
2023-05-05T22:15:53.072Z,53.43
2023-05-05T22:18:20.166Z,52.08
2023-05-05T22:20:47.197Z,51.74
2023-05-05T22:23:14.253Z,50.97
2023-05-05T22:25:41.495Z,51.91
2023-05-05T22:28:08.739Z,50.77
2023-05-05T22:30:35.806Z,52.06
2023-05-05T22:33:03.001Z,53.14
2023-05-05T22:35:30.427Z,52.92
2023-05-05T22:37:58.037Z,53.06
2023-05-05T22:40:25.204Z,53.90
2023-05-05T22:42:53.128Z,54.15
2023-05-05T22:45:21.356Z,53.86
2023-05-05T22:47:48.559Z,54.81
2023-05-05T22:50:15.686Z,55.31
2023-05-05T22:52:43.006Z,55.87
2023-05-05T22:55:10.618Z,56.37
2023-05-05T22:57:37.909Z,55.98
2023-05-05T23:00:06.173Z,54.96
2023-05-05T23:02:34.183Z,54.16
2023-05-05T23:05:01.615Z,53.87
2023-05-05T23:07:28.887Z,53.71
2023-05-05T23:09:56.223Z,53.60
2023-05-05T23:12:23.271Z,53.00
2023-05-05T23:14:50.526Z,54.08
2023-05-05T23:17:17.774Z,54.51
2023-05-05T23:19:47.598Z,54.39
2023-05-05T23:22:14.813Z,55.18
2023-05-05T23:24:41.910Z,54.82
2023-05-05T23:27:08.908Z,55.40
2023-05-05T23:29:36.187Z,56.64
2023-05-05T23:32:03.175Z,55.87
2023-05-05T23:34:30.611Z,55.08
2023-05-05T23:36:57.842Z,54.61
2023-05-05T23:39:24.911Z,53.38
2023-05-05T23:41:51.935Z,53.96
2023-05-05T23:44:18.969Z,52.83
2023-05-05T23:46:46.753Z,54.91
2023-05-05T23:49:13.792Z,55.27
2023-05-05T23:51:40.730Z,55.75
2023-05-05T23:54:07.820Z,55.76
2023-05-05T23:56:35.114Z,56.83
2023-05-05T23:59:02.178Z,56.24
